Time;durP1;ratioP1;P1;durP2;ratioP2;P2;SDS_P1;SDS_P2;PMS_P1;PMS_P2;Temp;Humidity;BMP_temperature;BMP_pressure;BME280_temperature;BME280_humidity;BME280_pressure;Samples;Min_cycle;Max_cycle;Signal;HPM_P1;HPM_P2
2022/01/28 00:04:50;;;;;;;8.57;3.00;;;6.20;99.90;;;;;;5094922;28;20626;-48
2022/01/28 00:07:16;;;;;;;12.02;2.50;;;6.20;99.90;;;;;;5095142;28;20178;-47
2022/01/28 00:09:41;;;;;;;16.80;3.28;;;6.10;99.90;;;;;;5095031;28;20228;-47
2022/01/28 00:12:08;;;;;;;19.38;2.80;;;6.00;99.90;;;;;;5094710;28;20212;-48
2022/01/28 00:38:53;;;;;;;10.63;2.72;;;5.90;99.90;;;;;;5094365;28;20636;-47
2022/01/28 00:41:19;;;;;;;9.35;2.17;;;5.80;99.90;;;;;;5094366;28;20161;-48
2022/01/28 00:43:44;;;;;;;6.78;1.73;;;5.80;99.90;;;;;;5076132;28;20256;-47
2022/01/28 00:46:10;;;;;;;7.32;2.28;;;5.80;99.90;;;;;;5094154;28;20197;-47
2022/01/28 00:48:36;;;;;;;12.70;2.67;;;5.90;99.90;;;;;;5094116;28;20558;-47
2022/01/28 00:51:01;;;;;;;11.73;2.53;;;5.80;99.90;;;;;;5094164;28;20181;-47
2022/01/28 00:53:27;;;;;;;12.20;2.40;;;5.80;99.90;;;;;;5094441;28;20168;-47
2022/01/28 00:55:57;;;;;;;9.20;2.05;;;5.80;99.90;;;;;;5094072;28;20169;-49
2022/01/28 00:58:24;;;;;;;25.48;3.35;;;5.70;99.90;;;;;;5093968;28;20184;-48
2022/01/28 01:00:50;;;;;;;16.58;3.97;;;5.70;99.90;;;;;;5093848;28;20175;-47
2022/01/28 01:03:15;;;;;;;13.68;3.00;;;5.70;99.90;;;;;;5093825;28;20164;-47
2022/01/28 01:05:41;;;;;;;5.93;1.98;;;5.70;99.90;;;;;;5093790;28;20207;-48
2022/01/28 01:08:07;;;;;;;8.82;2.55;;;5.60;99.90;;;;;;5093395;28;20176;-47
2022/01/28 01:10:33;;;;;;;7.63;2.17;;;5.50;99.90;;;;;;5075606;28;20270;-47
2022/01/28 01:13:00;;;;;;;12.23;2.95;;;5.60;99.90;;;;;;5093726;28;20572;-48
2022/01/28 01:15:32;;;;;;;10.55;2.50;;;5.50;99.90;;;;;;5093955;28;20201;-47
2022/01/28 01:18:04;;;;;;;14.00;4.72;;;5.50;99.90;;;;;;5075762;28;20618;-49
2022/01/28 01:20:41;;;;;;;15.93;2.70;;;5.50;99.90;;;;;;5093380;28;20181;-47
2022/01/28 01:23:13;;;;;;;12.57;2.25;;;5.40;99.90;;;;;;5093810;28;20172;-48
2022/01/28 01:25:50;;;;;;;11.68;2.80;;;5.40;99.90;;;;;;5093603;28;20201;-52
2022/01/28 01:28:19;;;;;;;21.17;2.72;;;5.40;99.90;;;;;;5076934;28;20651;-50
2022/01/28 01:30:46;;;;;;;9.18;2.47;;;5.30;99.90;;;;;;5093308;28;20172;-48
2022/01/28 01:33:12;;;;;;;14.77;2.95;;;5.30;99.90;;;;;;5093608;28;20173;-54
2022/01/28 01:35:39;;;;;;;11.90;3.10;;;5.20;99.90;;;;;;5093319;28;20162;-57
2022/01/28 01:38:07;;;;;;;9.00;2.30;;;5.20;99.90;;;;;;5093221;28;20248;-55
2022/01/28 01:40:44;;;;;;;13.27;2.22;;;5.20;99.90;;;;;;5093077;28;20634;-52
2022/01/28 01:43:17;;;;;;;15.32;2.58;;;5.20;99.90;;;;;;5093349;28;20176;-51
2022/01/28 01:53:36;;;;;;;8.38;2.08;;;5.00;99.90;;;;;;5092990;28;20221;-47
2022/01/28 01:56:02;;;;;;;12.82;2.97;;;5.00;99.90;;;;;;5093094;28;20248;-47
2022/01/28 01:58:31;;;;;;;14.32;3.88;;;5.00;99.90;;;;;;5093394;28;20169;-47
2022/01/28 02:00:58;;;;;;;13.07;2.70;;;4.90;99.90;;;;;;5093038;28;20269;-47
2022/01/28 02:03:24;;;;;;;9.55;2.60;;;4.90;99.90;;;;;;5092677;28;20162;-47
2022/01/28 02:05:49;;;;;;;11.60;2.67;;;4.80;99.90;;;;;;5092959;28;20277;-49
2022/01/28 02:08:15;;;;;;;15.02;2.55;;;4.80;99.90;;;;;;5074505;28;20167;-47
2022/01/28 02:10:40;;;;;;;14.90;2.88;;;4.80;99.90;;;;;;5092661;28;20562;-49
2022/01/28 02:13:06;;;;;;;15.00;2.67;;;4.80;99.90;;;;;;5092498;28;20774;-50
2022/01/28 02:15:32;;;;;;;9.10;2.22;;;4.70;99.90;;;;;;5092820;28;20173;-47
2022/01/28 02:17:59;;;;;;;6.13;2.15;;;4.70;99.90;;;;;;5092815;28;20629;-47
2022/01/28 02:20:31;;;;;;;15.68;2.90;;;4.70;99.90;;;;;;5092682;28;20169;-47
2022/01/28 02:22:56;;;;;;;12.65;3.08;;;4.70;99.90;;;;;;5092962;28;20587;-47
2022/01/28 02:25:24;;;;;;;19.95;3.03;;;4.60;99.90;;;;;;5092317;28;20690;-47
2022/01/28 02:27:50;;;;;;;10.35;2.15;;;4.50;99.90;;;;;;5074525;28;20191;-49
2022/01/28 02:30:16;;;;;;;13.50;3.13;;;4.60;99.90;;;;;;5092323;28;20672;-49
2022/01/28 02:32:44;;;;;;;14.75;3.28;;;4.50;99.90;;;;;;5091685;28;20170;-47
2022/01/28 02:35:10;;;;;;;9.82;2.33;;;4.50;99.90;;;;;;5092505;28;20177;-47
2022/01/28 02:37:35;;;;;;;13.82;2.72;;;4.50;99.90;;;;;;5092467;28;20503;-47
2022/01/28 02:40:01;;;;;;;20.40;2.90;;;4.50;99.90;;;;;;5092163;28;20250;-48
2022/01/28 02:42:44;;;;;;;12.93;2.35;;;4.50;99.90;;;;;;5092696;28;20173;-46
2022/01/28 02:45:09;;;;;;;6.97;2.10;;;4.50;99.90;;;;;;5092310;28;20242;-47
2022/01/28 02:47:38;;;;;;;9.48;2.85;;;4.50;99.90;;;;;;5092362;28;20596;-46
2022/01/28 02:50:07;;;;;;;12.65;2.60;;;4.50;99.90;;;;;;5092294;28;20165;-47
2022/01/28 02:52:43;;;;;;;9.93;2.58;;;4.40;99.90;;;;;;5092293;28;20173;-47
2022/01/28 02:55:11;;;;;;;11.20;2.70;;;4.40;99.90;;;;;;5092130;28;20163;-51
2022/01/28 02:57:41;;;;;;;15.35;2.67;;;4.50;99.90;;;;;;5091938;28;20208;-48
2022/01/28 03:00:07;;;;;;;16.65;2.83;;;4.40;99.90;;;;;;5092230;28;20179;-51
2022/01/28 03:02:32;;;;;;;12.25;2.47;;;4.40;99.90;;;;;;5073847;28;20252;-51
2022/01/28 03:07:35;;;;;;;20.42;2.63;;;4.40;99.90;;;;;;5092189;28;20163;-56
2022/01/28 03:12:57;;;;;;;13.57;2.70;;;4.40;99.90;;;;;;5074756;28;20213;-55
2022/01/28 03:15:22;;;;;;;13.63;3.30;;;4.40;99.90;;;;;;5091705;28;20205;-56
2022/01/28 03:18:10;;;;;;;12.38;2.60;;;4.40;99.90;;;;;;5092022;28;20169;-54
2022/01/28 03:20:40;;;;;;;8.70;2.13;;;4.40;99.90;;;;;;5092120;28;20173;-56
2022/01/28 03:23:07;;;;;;;5.93;1.65;;;4.50;99.90;;;;;;5092111;28;20169;-55
2022/01/28 03:25:41;;;;;;;14.73;3.10;;;4.50;99.90;;;;;;5091729;28;20201;-47
2022/01/28 03:28:07;;;;;;;11.45;2.58;;;4.50;99.90;;;;;;5091635;28;20173;-48
2022/01/28 03:30:33;;;;;;;10.77;3.20;;;4.50;99.90;;;;;;5091688;28;20206;-47
2022/01/28 03:32:59;;;;;;;5.13;2.42;;;4.60;99.90;;;;;;5092075;28;20177;-47
2022/01/28 03:35:25;;;;;;;9.70;2.15;;;4.50;99.90;;;;;;5091642;28;20203;-47
2022/01/28 03:37:58;;;;;;;15.85;2.58;;;4.50;99.90;;;;;;5091734;28;20192;-47
2022/01/28 03:40:24;;;;;;;6.57;2.00;;;4.50;99.90;;;;;;5091817;28;20173;-48
2022/01/28 03:42:50;;;;;;;14.35;2.47;;;4.50;99.90;;;;;;5092623;28;20165;-48
2022/01/28 03:45:15;;;;;;;15.88;2.63;;;4.50;99.90;;;;;;5095308;28;20209;-48
2022/01/28 03:47:41;;;;;;;11.70;3.08;;;4.50;99.90;;;;;;5095323;28;20173;-47
2022/01/28 03:50:07;;;;;;;14.40;2.92;;;4.50;99.90;;;;;;5095290;28;20179;-47
2022/01/28 03:52:32;;;;;;;12.05;2.90;;;4.60;99.90;;;;;;5095264;28;20169;-48
2022/01/28 03:54:58;;;;;;;10.25;1.90;;;4.60;99.90;;;;;;5077315;28;20166;-47
2022/01/28 03:57:23;;;;;;;8.45;2.47;;;4.60;99.90;;;;;;5095110;28;20784;-47
2022/01/28 03:59:49;;;;;;;17.25;3.05;;;4.70;99.90;;;;;;5095125;28;20162;-47
2022/01/28 04:02:19;;;;;;;7.60;2.70;;;4.70;99.90;;;;;;5094981;28;20166;-47
2022/01/28 04:05:40;;;;;;;7.78;2.75;;;4.60;99.90;;;;;;5095160;28;20225;-47
2022/01/28 04:13:01;;;;;;;10.45;2.50;;;4.50;99.90;;;;;;5094815;28;20353;-48
2022/01/28 04:15:50;;;;;;;17.30;2.38;;;4.60;99.90;;;;;;5095203;28;20185;-47
2022/01/28 04:18:15;;;;;;;8.60;2.13;;;4.60;99.90;;;;;;5094993;28;20181;-47
2022/01/28 04:20:41;;;;;;;9.05;2.50;;;4.50;99.90;;;;;;5094738;28;20621;-49
2022/01/28 04:23:06;;;;;;;7.68;1.80;;;4.60;99.90;;;;;;5094694;28;20165;-47
2022/01/28 04:25:32;;;;;;;11.55;2.33;;;4.50;99.90;;;;;;5094597;28;20589;-47
2022/01/28 04:27:57;;;;;;;12.07;3.13;;;4.60;99.90;;;;;;5094997;28;20195;-46
2022/01/28 04:30:23;;;;;;;14.80;2.78;;;4.50;99.90;;;;;;5094497;28;20165;-47
2022/01/28 04:32:50;;;;;;;6.32;1.83;;;4.50;99.90;;;;;;5094469;28;20169;-46
2022/01/28 04:35:16;;;;;;;20.50;2.50;;;4.50;99.90;;;;;;5094623;28;20173;-47
2022/01/28 04:40:19;;;;;;;12.82;2.10;;;4.50;99.90;;;;;;5094574;28;20173;-49
2022/01/28 04:45:33;;;;;;;15.98;2.67;;;4.50;99.90;;;;;;5078158;28;20204;-47
2022/01/28 04:48:14;;;;;;;12.88;2.38;;;4.50;99.90;;;;;;5094781;28;20188;-49
2022/01/28 04:50:51;;;;;;;9.43;2.50;;;4.50;99.90;;;;;;5094120;28;20232;-47
2022/01/28 05:27:36;;;;;;;20.50;3.28;;;4.00;99.90;;;;;;5093444;28;20165;-47
2022/01/28 05:30:02;;;;;;;12.40;3.50;;;4.00;99.90;;;;;;5093580;28;20165;-56
2022/01/28 05:32:27;;;;;;;13.88;2.90;;;4.00;99.90;;;;;;5093455;28;20171;-47
2022/01/28 05:34:53;;;;;;;12.93;2.60;;;4.00;99.90;;;;;;5093215;28;20169;-48
2022/01/28 05:37:18;;;;;;;23.38;3.10;;;4.00;99.90;;;;;;5093161;28;20216;-47
2022/01/28 05:39:44;;;;;;;12.02;2.88;;;4.00;99.90;;;;;;5093072;28;20162;-48
2022/01/28 05:42:09;;;;;;;10.73;2.13;;;4.00;99.90;;;;;;5092415;28;20170;-47
2022/01/28 05:44:35;;;;;;;16.60;3.22;;;4.00;99.90;;;;;;5092564;28;20201;-48
2022/01/28 05:47:03;;;;;;;13.70;2.40;;;3.90;99.90;;;;;;5093094;28;20238;-52
2022/01/28 05:49:30;;;;;;;12.60;2.97;;;3.90;99.90;;;;;;5093305;28;20157;-48
2022/01/28 05:51:55;;;;;;;15.27;2.85;;;3.90;99.90;;;;;;5093253;28;20176;-46
2022/01/28 05:54:21;;;;;;;7.80;2.45;;;3.90;99.90;;;;;;5092703;28;20158;-47
2022/01/28 05:56:46;;;;;;;13.20;2.80;;;3.80;99.90;;;;;;5092485;28;20170;-47
2022/01/28 05:59:12;;;;;;;16.75;4.43;;;3.80;99.90;;;;;;5092831;28;20628;-47
2022/01/28 06:01:37;;;;;;;11.73;2.83;;;3.90;99.90;;;;;;5093031;28;20221;-47
2022/01/28 06:04:03;;;;;;;12.25;3.00;;;3.80;99.90;;;;;;5092647;28;20161;-47
2022/01/28 06:06:30;;;;;;;10.55;2.25;;;3.80;99.90;;;;;;5092720;28;20257;-47
2022/01/28 06:08:56;;;;;;;8.50;2.10;;;3.80;99.90;;;;;;5075306;28;20177;-49
2022/01/28 06:11:23;;;;;;;10.63;2.80;;;3.80;99.90;;;;;;5092419;28;20169;-47
2022/01/28 06:13:48;;;;;;;10.85;3.97;;;3.80;99.90;;;;;;5092557;28;20170;-48
2022/01/28 06:16:15;;;;;;;13.77;2.90;;;3.80;99.90;;;;;;5092513;28;20264;-46
2022/01/28 06:18:42;;;;;;;17.58;3.40;;;3.80;99.90;;;;;;5092380;28;20562;-49
2022/01/28 06:21:08;;;;;;;12.23;2.72;;;3.70;99.90;;;;;;5092507;28;20230;-47
2022/01/28 06:23:33;;;;;;;15.60;2.78;;;3.80;99.90;;;;;;5092405;28;20661;-47
2022/01/28 06:25:59;;;;;;;17.20;4.03;;;3.80;99.90;;;;;;5092636;28;20205;-48
2022/01/28 06:28:25;;;;;;;9.27;3.03;;;3.80;99.90;;;;;;5092300;28;20173;-50
2022/01/28 06:30:51;;;;;;;14.00;3.40;;;3.80;99.90;;;;;;5092167;28;20184;-54
2022/01/28 06:33:16;;;;;;;13.43;3.15;;;3.80;99.90;;;;;;5092213;28;20573;-50
2022/01/28 06:35:44;;;;;;;11.60;2.53;;;3.80;99.90;;;;;;5092294;28;20165;-47
2022/01/28 06:38:09;;;;;;;16.45;3.33;;;3.80;99.90;;;;;;5092195;28;20595;-49
2022/01/28 06:40:35;;;;;;;19.65;3.20;;;3.90;99.90;;;;;;5092111;28;20188;-51
2022/01/28 06:43:00;;;;;;;16.20;3.58;;;3.90;99.90;;;;;;5092149;28;20197;-50
2022/01/28 06:45:26;;;;;;;12.98;3.15;;;3.90;99.90;;;;;;5092456;28;20247;-53
2022/01/28 06:47:51;;;;;;;12.55;3.55;;;4.00;99.90;;;;;;5092089;28;20226;-50
2022/01/28 06:50:17;;;;;;;15.48;2.80;;;4.00;99.90;;;;;;5091981;28;20173;-53
2022/01/28 06:52:43;;;;;;;20.48;3.85;;;4.10;99.90;;;;;;5092059;28;20165;-51
2022/01/28 06:55:10;;;;;;;19.63;4.57;;;4.10;99.90;;;;;;5091905;28;20181;-51
2022/01/28 06:57:36;;;;;;;8.45;2.70;;;4.10;99.90;;;;;;5092093;28;20528;-55
2022/01/28 07:00:05;;;;;;;10.18;3.08;;;4.10;99.90;;;;;;5092192;28;20248;-55
2022/01/28 07:02:30;;;;;;;12.55;3.72;;;4.10;99.90;;;;;;5092120;28;20567;-53
2022/01/28 07:04:56;;;;;;;14.20;3.97;;;4.00;99.90;;;;;;5092185;28;20276;-54
2022/01/28 07:07:24;;;;;;;8.43;2.90;;;4.00;99.90;;;;;;5091839;28;20173;-53
2022/01/28 07:09:50;;;;;;;8.70;2.20;;;4.10;99.90;;;;;;5093988;28;20181;-51
2022/01/28 07:12:16;;;;;;;30.27;5.13;;;4.10;99.90;;;;;;5111068;28;20216;-47
2022/01/28 07:14:41;;;;;;;15.32;4.22;;;4.10;99.90;;;;;;5128950;28;20254;-48
2022/01/28 07:17:07;;;;;;;14.82;3.40;;;4.10;99.90;;;;;;5131541;27;20175;-49
2022/01/28 07:19:32;;;;;;;12.98;3.33;;;4.10;99.90;;;;;;5135601;27;20278;-47
2022/01/28 07:21:58;;;;;;;10.05;2.95;;;4.20;99.90;;;;;;5135999;27;20175;-47
2022/01/28 07:24:24;;;;;;;14.32;3.90;;;4.10;99.90;;;;;;5135389;27;20168;-43
2022/01/28 07:26:49;;;;;;;16.10;4.82;;;4.00;99.90;;;;;;5135461;27;20564;-50
2022/01/28 07:29:15;;;;;;;8.18;4.20;;;4.10;99.90;;;;;;5135559;27;20160;-49
2022/01/28 07:31:41;;;;;;;21.08;5.28;;;4.00;99.90;;;;;;5135632;27;20199;-46
2022/01/28 07:34:07;;;;;;;6.20;3.08;;;4.00;99.90;;;;;;5135310;27;20529;-46
2022/01/28 07:36:34;;;;;;;11.93;3.90;;;4.10;99.90;;;;;;5135935;27;20242;-46
2022/01/28 07:38:59;;;;;;;9.63;3.17;;;4.20;99.90;;;;;;5135434;27;20561;-46
2022/01/28 07:41:26;;;;;;;25.75;4.55;;;4.20;99.90;;;;;;5135202;27;20160;-46
2022/01/28 07:43:52;;;;;;;16.60;4.13;;;4.20;99.90;;;;;;5135058;27;20171;-46
2022/01/28 07:46:18;;;;;;;12.27;2.60;;;4.20;99.90;;;;;;5134689;27;20207;-45
2022/01/28 07:48:44;;;;;;;12.90;2.92;;;4.20;99.90;;;;;;5135123;27;20217;-46
2022/01/28 07:51:09;;;;;;;15.93;4.80;;;4.20;99.90;;;;;;5134515;27;20513;-45
2022/01/28 07:53:35;;;;;;;17.38;4.03;;;4.20;99.90;;;;;;5134961;27;20172;-47
2022/01/28 07:56:00;;;;;;;19.73;4.80;;;4.30;99.90;;;;;;5134342;27;20242;-45
2022/01/28 07:58:26;;;;;;;16.85;4.20;;;4.30;99.90;;;;;;5135338;27;20190;-46
2022/01/28 08:00:51;;;;;;;8.32;4.35;;;4.30;99.90;;;;;;5134554;27;20212;-46
2022/01/28 08:03:17;;;;;;;11.23;3.92;;;4.40;99.90;;;;;;5134717;27;20235;-46
2022/01/28 08:05:42;;;;;;;12.93;4.45;;;4.40;99.90;;;;;;5134283;27;20618;-47
2022/01/28 08:08:09;;;;;;;11.55;4.03;;;4.40;99.90;;;;;;5134799;27;20160;-46
2022/01/28 08:10:35;;;;;;;15.30;4.47;;;4.40;99.90;;;;;;5134389;27;20307;-47
2022/01/28 08:13:03;;;;;;;15.95;3.78;;;4.50;99.90;;;;;;5115937;27;20698;-46
2022/01/28 08:15:28;;;;;;;12.75;4.28;;;4.40;99.90;;;;;;5120347;27;20161;-47
2022/01/28 08:17:54;;;;;;;21.63;4.90;;;4.50;99.90;;;;;;5113618;28;20520;-47
2022/01/28 08:20:20;;;;;;;17.35;5.00;;;4.50;99.90;;;;;;5113634;28;20171;-46
2022/01/28 08:22:52;;;;;;;13.27;4.30;;;4.60;99.90;;;;;;5113459;28;20518;-46
2022/01/28 08:25:20;;;;;;;10.82;4.93;;;4.70;99.90;;;;;;5113455;28;20209;-48
2022/01/28 08:27:46;;;;;;;16.30;5.03;;;4.80;99.90;;;;;;5113581;28;20565;-47
2022/01/28 08:30:14;;;;;;;12.73;5.40;;;4.80;99.90;;;;;;5112144;28;20176;-46
2022/01/28 08:32:40;;;;;;;11.32;4.75;;;4.90;99.90;;;;;;5113491;28;20191;-46
2022/01/28 08:35:07;;;;;;;12.25;4.68;;;4.90;99.90;;;;;;5113360;28;20160;-47
2022/01/28 08:37:32;;;;;;;12.93;4.95;;;4.90;99.90;;;;;;5113191;28;20173;-48
2022/01/28 08:39:59;;;;;;;17.55;5.50;;;4.90;99.90;;;;;;5113779;28;20160;-46
2022/01/28 08:42:25;;;;;;;19.55;4.90;;;4.80;99.90;;;;;;5113774;28;20199;-46
2022/01/28 08:44:51;;;;;;;16.58;6.05;;;4.80;99.90;;;;;;5112415;28;20228;-47
2022/01/28 08:47:16;;;;;;;11.13;4.82;;;4.80;99.90;;;;;;5113076;28;20703;-46
2022/01/28 08:49:42;;;;;;;17.55;5.78;;;4.80;99.90;;;;;;5111702;28;20667;-46
2022/01/28 08:52:07;;;;;;;19.08;6.30;;;4.90;99.90;;;;;;5111640;28;20168;-46
2022/01/28 08:54:33;;;;;;;17.00;6.13;;;5.00;99.90;;;;;;5111366;28;20175;-48
2022/01/28 08:56:58;;;;;;;14.00;5.60;;;5.10;99.90;;;;;;5111859;28;20165;-46
2022/01/28 08:59:24;;;;;;;14.43;5.75;;;5.20;99.90;;;;;;5111539;28;20160;-47
2022/01/28 09:01:49;;;;;;;17.40;5.95;;;5.20;99.90;;;;;;5111263;28;20177;-46
2022/01/28 09:04:15;;;;;;;14.45;6.47;;;5.10;99.90;;;;;;5111325;28;20696;-46
2022/01/28 09:06:41;;;;;;;18.63;6.00;;;5.20;99.90;;;;;;5111137;28;20691;-47
2022/01/28 09:09:07;;;;;;;20.77;6.93;;;5.10;99.90;;;;;;5111432;28;20164;-46
2022/01/28 09:11:45;;;;;;;19.20;6.18;;;5.10;99.90;;;;;;5111091;28;20212;-48
2022/01/28 09:14:12;;;;;;;15.60;6.40;;;5.10;99.90;;;;;;5111287;28;20168;-48
2022/01/28 09:16:38;;;;;;;14.00;6.28;;;5.10;99.90;;;;;;5111516;28;20266;-46
2022/01/28 09:19:03;;;;;;;13.07;6.88;;;5.00;99.90;;;;;;5112816;28;20259;-46
2022/01/28 09:21:29;;;;;;;23.27;7.85;;;5.10;99.90;;;;;;5112718;28;20160;-46
2022/01/28 09:23:54;;;;;;;15.30;6.72;;;5.20;99.90;;;;;;5110945;28;20191;-46
2022/01/28 09:26:20;;;;;;;17.38;7.40;;;5.40;99.90;;;;;;5111036;28;20219;-45
2022/01/28 09:28:45;;;;;;;21.13;7.07;;;5.50;99.90;;;;;;5110984;28;20188;-46
2022/01/28 09:31:11;;;;;;;17.08;7.38;;;5.60;99.90;;;;;;5110807;28;20212;-46
2022/01/28 09:33:37;;;;;;;19.63;7.32;;;5.70;99.90;;;;;;5110840;28;20203;-48
2022/01/28 09:36:04;;;;;;;20.00;7.15;;;5.80;99.90;;;;;;5111401;28;20161;-46
2022/01/28 09:38:30;;;;;;;22.83;6.90;;;5.80;99.90;;;;;;5112188;28;20218;-45
2022/01/28 09:40:56;;;;;;;18.63;6.45;;;5.80;99.90;;;;;;5112181;28;20172;-45
2022/01/28 09:43:25;;;;;;;16.60;7.47;;;5.90;99.90;;;;;;5112581;28;20160;-46
2022/01/28 09:45:52;;;;;;;18.52;6.45;;;6.00;99.90;;;;;;5112394;28;20208;-45
2022/01/28 09:48:19;;;;;;;12.50;5.32;;;6.00;99.90;;;;;;5093854;28;20570;-46
2022/01/28 09:50:46;;;;;;;18.88;7.03;;;6.00;99.90;;;;;;5112209;28;20525;-47
2022/01/28 09:53:12;;;;;;;14.65;6.13;;;6.10;99.90;;;;;;5112257;28;20255;-46
2022/01/28 09:55:39;;;;;;;15.57;5.88;;;6.20;99.90;;;;;;5112051;28;20177;-46
2022/01/28 09:58:05;;;;;;;17.05;6.20;;;6.30;99.90;;;;;;5112316;28;20192;-46
2022/01/28 10:00:32;;;;;;;16.83;6.07;;;6.50;99.90;;;;;;5111823;28;20215;-46
2022/01/28 10:03:06;;;;;;;14.27;5.35;;;6.50;99.90;;;;;;5112223;28;20248;-45
2022/01/28 10:05:38;;;;;;;20.17;6.32;;;6.40;99.90;;;;;;5111987;28;20231;-45
2022/01/28 10:08:10;;;;;;;14.80;5.78;;;6.40;99.90;;;;;;5111877;28;20669;-47
2022/01/28 10:10:50;;;;;;;15.05;6.25;;;6.50;99.90;;;;;;5111927;28;20221;-46
2022/01/28 10:13:34;;;;;;;15.98;5.65;;;6.60;99.90;;;;;;5111599;28;20291;-46
2022/01/28 10:16:15;;;;;;;17.30;5.50;;;6.60;99.90;;;;;;5112148;28;20249;-46
2022/01/28 10:18:57;;;;;;;16.27;5.00;;;6.80;99.90;;;;;;5110199;28;20542;-46
2022/01/28 10:21:39;;;;;;;16.00;4.65;;;6.80;99.90;;;;;;5111061;28;20251;-47
2022/01/28 10:24:13;;;;;;;13.30;4.80;;;6.80;99.90;;;;;;5111539;28;20168;-46
2022/01/28 10:26:52;;;;;;;20.55;5.60;;;6.80;99.90;;;;;;5111096;28;20259;-46
2022/01/28 10:29:26;;;;;;;11.32;4.25;;;6.90;99.90;;;;;;5111602;28;20168;-46
2022/01/28 10:32:06;;;;;;;13.35;5.40;;;6.90;99.90;;;;;;5111133;28;20174;-46
2022/01/28 10:34:37;;;;;;;20.20;5.70;;;6.80;99.90;;;;;;5111284;28;20567;-46
2022/01/28 10:37:25;;;;;;;16.58;4.55;;;6.90;99.90;;;;;;5111144;28;20553;-47
2022/01/28 10:39:50;;;;;;;12.52;5.00;;;6.80;99.90;;;;;;5110927;28;20167;-46
2022/01/28 10:42:39;;;;;;;11.70;4.80;;;6.80;99.90;;;;;;5111425;28;20169;-46
2022/01/28 10:45:13;;;;;;;19.08;5.20;;;6.80;99.90;;;;;;5111157;28;20531;-46
2022/01/28 10:47:40;;;;;;;10.90;3.85;;;6.80;99.90;;;;;;5111470;28;20161;-48
2022/01/28 10:50:23;;;;;;;11.32;4.05;;;6.90;99.90;;;;;;5111092;28;20165;-47
2022/01/28 10:53:05;;;;;;;15.75;4.35;;;6.80;99.90;;;;;;5110523;28;20172;-46
2022/01/28 10:55:33;;;;;;;17.95;4.53;;;6.70;99.90;;;;;;5111057;28;20164;-49
2022/01/28 10:58:05;;;;;;;15.35;4.50;;;6.80;99.90;;;;;;5109655;28;20648;-46
2022/01/28 11:00:37;;;;;;;13.63;4.65;;;6.70;99.90;;;;;;5109672;28;20184;-47
2022/01/28 11:03:06;;;;;;;16.33;4.82;;;6.70;99.90;;;;;;5109297;28;20615;-50
2022/01/28 11:05:34;;;;;;;15.88;5.22;;;6.60;99.90;;;;;;5109419;28;20283;-47
2022/01/28 11:08:01;;;;;;;13.15;4.10;;;6.70;99.90;;;;;;5111126;28;20165;-51
2022/01/28 11:10:28;;;;;;;12.25;3.25;;;6.80;99.90;;;;;;5111681;28;20184;-54
2022/01/28 11:12:54;;;;;;;16.15;3.80;;;6.80;99.90;;;;;;5110898;28;20683;-50
2022/01/28 11:15:20;;;;;;;12.02;3.83;;;6.70;99.90;;;;;;5111037;28;20172;-50
2022/01/28 11:17:48;;;;;;;20.17;3.97;;;6.80;99.90;;;;;;5111063;28;20168;-52
2022/01/28 11:20:20;;;;;;;13.88;4.25;;;6.80;99.90;;;;;;5111007;28;20632;-53
2022/01/28 11:23:23;;;;;;;15.02;4.85;;;6.80;99.90;;;;;;5111136;28;20537;-51
2022/01/28 11:26:11;;;;;;;10.63;4.35;;;6.70;99.90;;;;;;5110891;28;20283;-52
2022/01/28 11:28:48;;;;;;;12.73;3.92;;;6.80;99.90;;;;;;5110877;28;20169;-48
2022/01/28 11:31:14;;;;;;;13.93;5.00;;;7.00;99.90;;;;;;5109611;28;20184;-51
2022/01/28 11:33:50;;;;;;;15.60;4.13;;;7.00;99.90;;;;;;5109285;28;20161;-48
2022/01/28 11:36:33;;;;;;;9.93;3.25;;;7.30;99.90;;;;;;5109295;28;20251;-47
2022/01/28 11:39:18;;;;;;;11.93;4.05;;;7.50;99.90;;;;;;5110643;28;20259;-49
2022/01/28 11:42:13;;;;;;;11.27;3.60;;;7.40;99.90;;;;;;5110545;28;20177;-49
2022/01/28 11:44:49;;;;;;;8.60;2.95;;;7.60;99.90;;;;;;5110830;28;20180;-51
2022/01/28 11:47:34;;;;;;;10.30;2.83;;;7.70;99.90;;;;;;5110702;28;20173;-50
2022/01/28 11:50:12;;;;;;;15.40;3.42;;;7.80;99.90;;;;;;5110889;28;20165;-50
2022/01/28 11:52:44;;;;;;;10.45;2.95;;;7.90;99.90;;;;;;5111042;28;20210;-51
2022/01/28 11:55:20;;;;;;;11.23;4.00;;;7.90;99.90;;;;;;5110748;28;20533;-52
2022/01/28 11:58:08;;;;;;;12.95;4.15;;;8.10;99.90;;;;;;5110843;28;20176;-52
2022/01/28 12:00:39;;;;;;;10.00;4.07;;;8.20;99.90;;;;;;5110153;28;20768;-50
2022/01/28 12:03:25;;;;;;;20.15;4.18;;;8.30;99.90;;;;;;5110631;28;20505;-50
2022/01/28 12:05:56;;;;;;;14.98;3.85;;;8.30;99.90;;;;;;5114366;28;20200;-49
2022/01/28 12:08:26;;;;;;;12.43;3.42;;;8.40;99.90;;;;;;5114082;28;20648;-50
2022/01/28 12:10:53;;;;;;;14.60;3.38;;;8.30;99.90;;;;;;5114087;28;20259;-53
2022/01/28 12:13:29;;;;;;;9.00;3.38;;;8.50;99.90;;;;;;5113876;28;20564;-49
2022/01/28 12:16:11;;;;;;;9.27;2.70;;;8.40;99.90;;;;;;5113968;28;20538;-47
2022/01/28 12:18:47;;;;;;;14.15;3.45;;;8.50;99.90;;;;;;5113918;28;20640;-53
2022/01/28 12:21:14;;;;;;;13.05;3.42;;;8.70;99.90;;;;;;5095720;28;20168;-48
2022/01/28 12:23:40;;;;;;;6.60;2.50;;;8.50;99.90;;;;;;5113845;28;20575;-47
2022/01/28 12:26:06;;;;;;;9.07;2.40;;;8.60;99.90;;;;;;5113761;28;20200;-50
2022/01/28 12:28:32;;;;;;;11.70;3.17;;;8.50;99.90;;;;;;5095685;28;20262;-47
2022/01/28 12:30:59;;;;;;;10.23;2.70;;;8.40;99.90;;;;;;5113904;28;20175;-47
2022/01/28 12:33:29;;;;;;;14.18;3.03;;;9.90;99.90;;;;;;5114074;28;20175;-47
2022/01/28 12:35:57;;;;;;;17.10;3.78;;;8.60;99.90;;;;;;5113575;28;20177;-47
2022/01/28 12:38:26;;;;;;;12.52;3.00;;;8.50;99.90;;;;;;5113654;28;20161;-47
2022/01/28 12:40:57;;;;;;;15.40;3.22;;;8.40;99.90;;;;;;5113338;28;20646;-47
2022/01/28 12:43:25;;;;;;;11.35;3.00;;;8.20;99.90;;;;;;5113702;28;20181;-48
2022/01/28 12:46:06;;;;;;;8.10;2.53;;;8.30;99.90;;;;;;5113682;28;20266;-49
2022/01/28 12:48:32;;;;;;;8.40;2.50;;;8.20;99.90;;;;;;5113292;28;20256;-46
2022/01/28 12:50:59;;;;;;;9.90;3.22;;;8.30;99.90;;;;;;5113489;28;20171;-47
2022/01/28 12:53:35;;;;;;;11.88;2.35;;;8.40;99.90;;;;;;5113897;28;20176;-49
2022/01/28 12:56:04;;;;;;;10.05;2.80;;;8.20;99.90;;;;;;5113579;28;20231;-49
2022/01/28 12:58:34;;;;;;;7.28;2.72;;;8.20;99.90;;;;;;5113757;28;20255;-47
2022/01/28 13:01:10;;;;;;;9.48;3.47;;;8.10;99.90;;;;;;5113059;28;20176;-48
2022/01/28 13:03:45;;;;;;;8.50;3.13;;;8.20;99.90;;;;;;5113047;28;20164;-47
2022/01/28 13:06:24;;;;;;;13.48;4.15;;;8.10;99.90;;;;;;5113001;28;20216;-53
2022/01/28 13:08:51;;;;;;;10.27;3.22;;;8.10;99.90;;;;;;5112990;28;20161;-51
2022/01/28 13:11:17;;;;;;;11.35;4.47;;;8.30;99.90;;;;;;5113083;28;20255;-49
2022/01/28 13:13:53;;;;;;;7.72;2.88;;;8.50;99.90;;;;;;5112905;28;20252;-48
2022/01/28 13:16:32;;;;;;;14.02;3.28;;;8.60;99.90;;;;;;5112312;28;20167;-49
2022/01/28 13:18:59;;;;;;;13.18;3.38;;;8.60;99.90;;;;;;5113275;28;20161;-48
2022/01/28 13:21:25;;;;;;;8.38;2.70;;;8.60;99.90;;;;;;5113062;28;20198;-47
2022/01/28 13:24:27;;;;;;;9.63;3.22;;;8.50;99.90;;;;;;5112733;28;20256;-50
2022/01/28 13:27:01;;;;;;;12.13;3.25;;;8.40;99.90;;;;;;5059286;28;20218;-48
2022/01/28 13:29:40;;;;;;;10.70;3.05;;;8.30;99.90;;;;;;5112806;28;20175;-49
2022/01/28 13:32:10;;;;;;;14.27;3.83;;;8.30;99.90;;;;;;5112587;28;20164;-49
2022/01/28 13:34:54;;;;;;;11.07;4.05;;;8.30;99.90;;;;;;5109496;28;20177;-48
2022/01/28 13:37:34;;;;;;;13.32;3.88;;;8.30;99.90;;;;;;5107041;28;20552;-51
2022/01/28 13:40:00;;;;;;;14.35;3.30;;;8.20;99.90;;;;;;5112534;28;20251;-47
2022/01/28 13:42:26;;;;;;;17.58;3.83;;;8.20;99.90;;;;;;5093364;28;20169;-51
2022/01/28 13:44:52;;;;;;;7.72;3.40;;;8.20;99.90;;;;;;5091774;28;20181;-50
2022/01/28 13:47:18;;;;;;;22.15;3.88;;;8.10;99.90;;;;;;5091440;28;20566;-47
2022/01/28 13:49:44;;;;;;;10.55;3.10;;;8.10;99.90;;;;;;5092106;28;20166;-49
2022/01/28 13:52:10;;;;;;;9.75;2.97;;;8.00;99.90;;;;;;5091500;28;20518;-53
2022/01/28 13:54:36;;;;;;;13.75;3.75;;;8.00;99.90;;;;;;5098703;28;20175;-49
2022/01/28 13:57:04;;;;;;;11.38;2.67;;;8.00;99.90;;;;;;5111476;28;20530;-48
2022/01/28 13:59:32;;;;;;;7.53;2.63;;;7.90;99.90;;;;;;5111080;28;20177;-47
2022/01/28 14:01:59;;;;;;;12.98;3.47;;;7.90;99.90;;;;;;5111707;28;20171;-49
2022/01/28 14:04:27;;;;;;;12.77;4.00;;;8.00;99.90;;;;;;5099406;28;20177;-49
2022/01/28 14:07:19;;;;;;;14.40;4.78;;;7.90;99.90;;;;;;5105287;28;20297;-52
2022/01/28 14:09:58;;;;;;;15.93;4.60;;;7.90;99.90;;;;;;5103563;28;20276;-48
2022/01/28 14:12:36;;;;;;;18.42;4.65;;;7.90;99.90;;;;;;5091383;28;20221;-48
2022/01/28 14:18:03;;;;;;;12.65;4.45;;;8.10;99.90;;;;;;5086961;28;20192;-48
2022/01/28 14:20:29;;;;;;;14.40;4.90;;;8.20;99.90;;;;;;5091644;28;20309;-49
2022/01/28 14:22:54;;;;;;;10.43;4.30;;;8.20;99.90;;;;;;5092535;28;20256;-52
2022/01/28 14:25:23;;;;;;;10.77;3.63;;;8.20;99.90;;;;;;5091171;28;20547;-54
2022/01/28 14:28:01;;;;;;;8.48;4.00;;;8.20;99.90;;;;;;5093410;28;20186;-52